• Join FlightAware (Why Join?)
  • Login
  • US Flag 
10:18PM EDT


 

Airport Tracker/Info


-or-


 

Live Flight TrackerFlight Track Log ✈ ASQ6041 ✈ 11-Sep-2013 ✈ KDEN - KLNK

Flight Track Log - Related Links

Times and Time Zones

All times are in EDT time to prevent confusion due to time zone crossing. See the ASQ6041 flight status page for this flight to view local times or setup timezone preferences in your user account.

Time Position Orientation Groundspeed Altitude Reporting Facility
EDT Latitude Longitude Course Direction KTS MPH feet Rate Location/Type
12:02PM 39.8833 -104.6167 93° East 174 200 6,100  Level Denver TRACON
12:03PM 39.8833 -104.5333 90° East 236 272 7,600 1,800 Climbing Denver TRACON
12:04PM 39.8833 -104.4333 90° East 286 329 9,700 1,620 Climbing Denver TRACON
12:05PM 39.8833 -104.3333 90° East 325 374 10,900 1,500 Climbing Denver TRACON
12:06PM 39.9685 -103.9973 80° East  Level Estimated
12:06PM 39.8833 -104.2000 90° East 349 402 12,800  Level Denver TRACON
12:07PM 39.9626 -103.8594 93° East  Level FlightAware Approximate
12:07PM 39.8800 -104.0231 91° East 353 406 15,100  Level Denver Center
12:08PM 39.8819 -103.9094 89° East 369 425 16,300 1,320 Climbing Denver Center
12:09PM 39.8819 -103.7422 90° East 379 436 17,900 1,080 Climbing Denver Center
12:10PM 39.8967 -103.6219 81° East 373 429 18,600 960 Climbing Denver Center
12:11PM 39.9156 -103.4522 82° East 394 453 20,000 1,200 Climbing Denver Center
12:12PM 39.9331 -103.3103 81° East 398 458 21,100 1,020 Climbing Denver Center
12:13PM 39.9481 -103.1661 82° East 403 464 22,200 1,020 Climbing Denver Center
12:14PM 39.9642 -103.0214 82° East 406 467 23,300 1,020 Climbing Denver Center
12:15PM 39.9806 -102.8758 82° East 408 470 24,400 1,080 Climbing Denver Center
12:16PM 39.9947 -102.7281 83° East 411 473 25,600 1,200 Climbing Denver Center
12:17PM 40.0142 -102.5581 81° East 408 470 26,900 600 Climbing Denver Center
12:18PM 40.0286 -102.4117 83° East 423 487 27,000  Climbing Denver Center
12:19PM 40.0481 -102.2314 82° East 449 517 27,000  Level Denver Center
12:21PM 40.0664 -102.0450 83° East 462 532 27,000  Level Denver Center
12:22PM 40.0856 -101.8531 83° East 477 549 27,000  Level Denver Center
12:23PM 40.1017 -101.6892 83° East 476 548 27,000  Level Denver Center
12:24PM 40.1206 -101.4981 83° East 477 549 27,000  Level Denver Center
12:25PM 40.1358 -101.3353 83° East 474 545 27,000  Level Denver Center
12:26PM 40.1536 -101.1439 83° East 476 548 27,000  Level Denver Center
12:27PM 40.1692 -100.9794 83° East 478 550 27,000  Level Denver Center
12:28PM 40.1867 -100.7892 83° East 476 548 27,000  Level Denver Center
12:29PM 40.2011 -100.6256 83° East 477 549 27,000  Level Denver Center
12:30PM 40.2353 -100.4389 76° East 476 548 27,000  Level Denver Center
12:31PM 40.2675 -100.2781 75° East 478 550 27,000  Level Denver Center
12:32PM 40.3058 -100.0919 75° East 477 549 27,000  Level Denver Center
12:33PM 40.3375 -99.9319 75° East 476 548 27,000  Level Denver Center
12:34PM 40.3769 -99.7369 75° East 475 547 27,000  Level Denver Center
12:35PM 40.4103 -99.5683 75° East 477 549 27,000  Level Denver Center
12:36PM 40.4414 -99.3978 76° East 480 552 27,000  Level Denver Center
12:37PM 40.4747 -99.2303 75° East 477 549 27,000  Level Denver Center
12:38PM 40.5072 -99.0628 76° East 476 548 27,000  Level Denver Center
12:39PM 40.5444 -98.8611 76° East 478 550 27,000  Level Minneapolis Center
12:40PM 40.5767 -98.6919 76° East 480 552 27,000  Level Minneapolis Center
12:41PM 40.6078 -98.5217 76° East 481 554 27,000  Level Minneapolis Center
12:42PM 40.6458 -98.3181 76° East 481 554 27,000  Level Minneapolis Center
12:44PM 40.6764 -98.1472 77° East 481 554 27,000 -240 Level Minneapolis Center
12:45PM 40.7122 -97.9422 77° East 481 554 26,600 -1,200 Descending Minneapolis Center
12:46PM 40.7439 -97.7733 76° East 479 551 24,600 -1,800 Descending Minneapolis Center
12:47PM 40.7733 -97.6103 77° East 464 534 22,900 -1,860 Descending Minneapolis Center
12:47PM 40.7600 -97.5594 109° East 458 527 22,300 -2,280 Descending Minneapolis Center
12:47PM 40.7781 -97.4669 76° East 450 518 21,000 -2,100 Descending Minneapolis Center
12:48PM 40.8014 -97.4486 31° Northeast 457 526 20,600 -2,280 Descending Minneapolis Center
12:49PM 40.7994 -97.3025 91° East 427 491 18,200 -3,000 Descending Minneapolis Center
12:49PM 40.7739 -97.1594 103° East 383 441 15,100 -3,900 Descending Minneapolis Center
12:50PM 40.7864 -97.1292 61° Northeast 402 463 14,200 -3,300 Descending Minneapolis Center
12:50PM 40.7639 -97.0175 105° East 366 421 11,800 -2,760 Descending Minneapolis Center
12:51PM 40.7747 -96.9992 52° Northeast 371 427 11,400 -2,100 Descending Minneapolis Center
12:51PM 40.7306 -96.9081 123° Southeast 312 359 9,700 -1,680 Descending Minneapolis Center
12:52PM 40.7450 -96.9161 337° Northwest 325 374 9,700 -2,400 Level Minneapolis Center
12:52PM 40.6750 -96.8506 145° Southeast 280 322 7,500 -2,820 Descending Minneapolis Center
12:53PM 40.6667 -96.8542 198° South 291 335 6,800 -2,400 Descending Minneapolis Center
12:53PM 40.6000 -96.8197 159° South 275 316 5,100 -1,860 Descending Minneapolis Center
12:54PM 40.5942 -96.8219 196° South 279 321 4,900 -840 Descending Minneapolis Center
12:54PM 40.5589 -96.7608 127° Southeast 245 282 4,300 -900 Descending Minneapolis Center
12:55PM 40.5806 -96.7517 18° North 256 295 4,000 -300 Descending Minneapolis Center
12:55PM 40.6147 -96.7497 North 212 244 4,000  Level Minneapolis Center
12:56PM 40.6522 -96.7642 344° North 227 261 4,000 -240 Level Minneapolis Center
12:56PM 40.6733 -96.7544 19° North 216 249 3,800 -720 Descending Minneapolis Center
12:57PM 40.7131 -96.7631 351° North 217 250 3,300 -1,140 Descending Minneapolis Center
12:57PM 40.7342 -96.7539 18° North 207 238 2,700 -900 Descending Minneapolis Center
12:58PM 40.7675 -96.7639 347° North 208 239 2,400 -840 Descending Minneapolis Center
12:58PM 40.7758 -96.7550 39° Northeast 138 159 1,900 -600 Descending Minneapolis Center
12:59PM 40.8083 -96.7647 347° North 173 199 1,800 -660 Descending Minneapolis Center
12:59PM 40.8117 -96.7569 60° Northeast 135 155 1,300 -1,440 Descending Minneapolis Center